Time;durP1;ratioP1;P1;durP2;ratioP2;P2;SDS_P1;SDS_P2;PMS_P1;PMS_P2;Temp;Humidity;BMP_temperature;BMP_pressure;BME280_temperature;BME280_humidity;BME280_pressure;Samples;Min_cycle;Max_cycle;Signal;HPM_P1;HPM_P2
2022/06/26 00:02:27;;;;;;;3.75;2.83;;;20.90;99.90;;;21.46;90.70;100574.50;5204988;28;20051;-81
2022/06/26 00:05:01;;;;;;;5.10;2.92;;;20.90;99.90;;;21.44;90.64;100582.44;5213665;28;20079;-81
2022/06/26 00:07:33;;;;;;;3.60;2.80;;;21.00;99.90;;;21.38;90.56;100578.09;5231426;28;20044;-81
2022/06/26 00:10:06;;;;;;;5.03;2.88;;;20.90;99.90;;;21.36;90.56;100576.38;5231371;28;20099;-81
2022/06/26 00:12:38;;;;;;;5.00;3.30;;;20.90;99.90;;;21.31;90.56;100573.78;5213323;28;20106;-82
2022/06/26 00:15:11;;;;;;;4.18;2.70;;;20.80;99.90;;;21.29;91.39;100561.44;5230528;28;20052;-80
2022/06/26 00:17:44;;;;;;;4.28;2.88;;;20.80;99.90;;;21.27;91.60;100565.88;5230922;28;20049;-81
2022/06/26 00:20:17;;;;;;;3.55;2.42;;;20.80;99.90;;;21.29;91.72;100567.63;5200286;28;20067;-81
2022/06/26 00:22:49;;;;;;;3.22;2.55;;;20.80;99.90;;;21.31;92.22;100571.13;5205104;28;20068;-80
2022/06/26 00:25:21;;;;;;;4.40;2.85;;;20.80;99.90;;;21.30;92.44;100573.81;5212807;28;20045;-79
2022/06/26 00:27:54;;;;;;;3.08;2.40;;;20.80;99.90;;;21.29;92.61;100583.53;5212949;28;20495;-81
2022/06/26 00:30:26;;;;;;;3.25;2.40;;;20.90;99.90;;;21.28;92.88;100587.09;5230673;28;20392;-80
2022/06/26 00:32:58;;;;;;;3.42;2.38;;;20.80;99.90;;;21.25;92.97;100597.66;5207271;28;20095;-81
2022/06/26 00:35:31;;;;;;;2.80;2.45;;;20.80;99.90;;;21.21;93.33;100590.66;5230332;28;20041;-82
2022/06/26 00:38:03;;;;;;;3.58;2.47;;;20.80;99.90;;;21.19;93.82;100608.38;5212865;28;20053;-80
2022/06/26 00:40:36;;;;;;;3.10;2.42;;;20.70;99.90;;;21.16;94.54;100611.03;5229901;28;20119;-80
2022/06/26 00:43:08;;;;;;;3.15;2.42;;;20.70;99.90;;;21.15;94.77;100617.25;5212657;28;20049;-79
2022/06/26 00:45:40;;;;;;;4.13;2.65;;;20.70;99.90;;;21.16;94.94;100623.41;5211859;28;20049;-80
2022/06/26 00:48:13;;;;;;;3.53;2.40;;;20.70;99.90;;;21.16;94.70;100619.00;5229106;28;20136;-80
2022/06/26 00:50:46;;;;;;;3.70;2.90;;;20.70;99.90;;;21.14;94.30;100615.50;5212292;28;20045;-81
2022/06/26 00:53:19;;;;;;;4.53;2.67;;;20.60;99.90;;;21.12;94.11;100611.97;5212553;28;20069;-81
2022/06/26 00:55:51;;;;;;;4.20;2.80;;;20.60;99.90;;;21.10;93.90;100614.63;5212261;28;20099;-80
2022/06/26 00:58:23;;;;;;;3.65;2.50;;;20.60;99.90;;;21.10;93.97;100616.41;5213189;28;20267;-79
2022/06/26 01:00:56;;;;;;;3.17;2.55;;;20.60;99.90;;;21.08;94.14;100611.13;5212737;28;20044;-81
2022/06/26 01:03:28;;;;;;;4.72;2.55;;;20.60;99.90;;;21.07;94.55;100621.75;5213234;28;20057;-80
2022/06/26 01:06:01;;;;;;;6.63;3.28;;;20.60;99.90;;;21.04;94.33;100617.34;5212340;28;20044;-80
2022/06/26 01:08:34;;;;;;;5.68;3.22;;;20.60;99.90;;;20.97;93.92;100612.16;5212349;28;20412;-81
2022/06/26 01:11:17;;;;;;;3.17;2.50;;;20.50;99.90;;;20.95;93.89;100616.59;5212605;28;20049;-80
2022/06/26 01:13:53;;;;;;;3.90;2.78;;;20.50;99.90;;;20.96;94.15;100618.34;5213053;28;20072;-80
2022/06/26 01:16:26;;;;;;;4.50;2.97;;;20.50;99.90;;;20.96;94.41;100623.63;5212406;28;20108;-79
2022/06/26 01:19:00;;;;;;;3.58;2.28;;;20.50;99.90;;;20.99;94.66;100631.53;5213322;28;20442;-80
2022/06/26 01:21:34;;;;;;;2.90;2.47;;;20.50;99.90;;;20.98;94.94;100635.97;5212810;28;20045;-80
2022/06/26 01:24:08;;;;;;;4.50;2.53;;;20.50;99.90;;;20.99;95.23;100644.78;5213469;28;20055;-80
2022/06/26 01:26:41;;;;;;;3.53;2.35;;;20.50;99.90;;;21.00;95.51;100638.63;5212567;28;20045;-82
2022/06/26 01:29:13;;;;;;;3.92;2.28;;;20.50;99.90;;;20.98;95.90;100635.09;5213136;28;20465;-80
2022/06/26 01:31:45;;;;;;;3.92;2.53;;;20.50;99.90;;;20.96;96.20;100631.59;5214103;28;20095;-80
2022/06/26 01:34:18;;;;;;;3.72;2.80;;;20.50;99.90;;;20.92;96.13;100624.56;5231335;28;20048;-80
2022/06/26 01:36:50;;;;;;;4.10;2.60;;;20.50;99.90;;;20.88;96.04;100644.03;5212920;28;20063;-80
2022/06/26 01:39:24;;;;;;;3.28;2.47;;;20.40;99.90;;;20.82;96.31;100644.97;5211078;28;20411;-79
2022/06/26 01:41:56;;;;;;;3.22;2.30;;;20.30;99.90;;;20.78;96.76;100652.06;5211649;28;20427;-80
2022/06/26 01:44:29;;;;;;;4.20;2.85;;;20.40;99.90;;;20.78;97.44;100661.78;5211494;28;20052;-80
2022/06/26 01:47:02;;;;;;;4.78;2.47;;;20.30;99.90;;;20.78;97.87;100667.94;5210426;28;20045;-79
2022/06/26 01:49:39;;;;;;;3.50;2.40;;;20.30;99.90;;;20.79;98.46;100677.66;5211145;28;20067;-81
2022/06/26 01:52:11;;;;;;;3.60;2.15;;;20.40;99.90;;;20.81;98.36;100678.53;5210976;28;20049;-80
2022/06/26 01:54:45;;;;;;;3.83;2.45;;;20.30;99.90;;;20.82;98.24;100680.28;5211117;28;20051;-78
2022/06/26 01:57:17;;;;;;;5.75;2.60;;;20.30;99.90;;;20.83;98.42;100683.81;5210919;28;20067;-80
2022/06/26 01:59:52;;;;;;;4.50;2.40;;;20.40;99.90;;;20.82;98.12;100690.00;5210980;28;20049;-80
2022/06/26 02:02:26;;;;;;;4.38;3.10;;;20.40;99.90;;;20.78;98.06;100689.16;5211037;28;20079;-80
2022/06/26 02:04:59;;;;;;;4.35;2.63;;;20.40;99.90;;;20.73;97.90;100690.94;5228265;28;20080;-79
2022/06/26 02:07:32;;;;;;;4.28;2.35;;;20.30;99.90;;;20.68;97.77;100687.47;5210750;28;20045;-81
2022/06/26 02:15:47;;;;;;;3.17;2.45;;;20.10;99.90;;;20.54;98.23;100670.84;5202926;28;20064;-80
2022/06/26 02:18:21;;;;;;;4.05;2.67;;;20.10;99.90;;;20.47;98.29;100675.25;5211183;28;20056;-80
2022/06/26 02:20:53;;;;;;;3.63;2.58;;;20.10;99.90;;;20.41;98.24;100680.59;5211120;28;20056;-80
2022/06/26 02:23:27;;;;;;;3.88;2.25;;;20.00;99.90;;;20.36;98.31;100670.94;5210978;28;20052;-80
2022/06/26 02:26:00;;;;;;;3.88;2.78;;;19.90;99.90;;;20.33;98.50;100674.47;5210865;28;20048;-81
2022/06/26 02:28:32;;;;;;;3.85;2.80;;;19.90;99.90;;;20.29;98.41;100670.97;5211076;28;20068;-81
2022/06/26 02:31:05;;;;;;;3.80;2.38;;;19.90;99.90;;;20.27;98.31;100680.66;5211599;28;20522;-80
2022/06/26 02:33:38;;;;;;;3.85;2.67;;;19.80;99.90;;;20.24;98.31;100666.59;5211248;28;20410;-81
2022/06/26 02:36:10;;;;;;;3.50;2.65;;;19.80;99.90;;;20.21;98.21;100659.56;5210977;28;20048;-80
2022/06/26 02:38:45;;;;;;;4.30;2.47;;;19.70;99.90;;;20.17;98.46;100673.69;5210805;28;20076;-79
2022/06/26 02:41:19;;;;;;;4.50;2.60;;;19.70;99.90;;;20.15;98.45;100675.47;5229101;28;20074;-80
2022/06/26 02:43:52;;;;;;;3.78;2.60;;;19.70;99.90;;;20.15;98.71;100677.22;5211163;28;20045;-80
2022/06/26 02:46:25;;;;;;;3.75;2.25;;;19.70;99.90;;;20.12;98.80;100675.50;5211011;28;20040;-81
2022/06/26 02:48:59;;;;;;;4.32;2.70;;;19.70;99.90;;;20.09;98.69;100669.34;5211761;28;20045;-80
2022/06/26 02:51:32;;;;;;;4.68;2.63;;;19.70;99.90;;;20.04;98.96;100658.78;5213616;28;20045;-80
2022/06/26 02:54:04;;;;;;;3.88;2.78;;;19.60;99.90;;;20.02;99.12;100655.28;5210478;28;20048;-79
2022/06/26 02:56:38;;;;;;;4.68;2.88;;;19.60;99.90;;;20.02;99.58;100657.94;5209453;28;20045;-81
2022/06/26 02:59:10;;;;;;;;;;;19.60;99.90;;;20.02;99.82;100666.75;5210420;28;20131;-80
2022/06/26 03:01:43;;;;;;;4.13;2.72;;;19.60;99.90;;;20.02;99.89;100671.16;5210254;28;19920;-79
2022/06/26 03:04:42;;;;;;;5.50;2.92;;;19.60;99.90;;;20.00;99.71;100678.19;5231338;28;20123;-80
2022/06/26 03:07:16;;;;;;;4.47;3.10;;;19.60;99.90;;;19.98;99.73;100685.28;5213839;28;20153;-80
2022/06/26 03:09:49;;;;;;;4.10;2.67;;;19.60;99.90;;;19.96;99.87;100692.34;5214471;28;20136;-81
2022/06/26 03:12:22;;;;;;;4.25;2.88;;;19.50;99.90;;;19.93;99.82;100689.72;5214678;28;20056;-80
2022/06/26 03:14:55;;;;;;;4.88;3.08;;;19.50;99.90;;;19.91;99.73;100683.56;5214253;28;20053;-79
2022/06/26 03:17:28;;;;;;;4.10;2.58;;;19.50;99.90;;;19.87;99.50;100690.63;5214684;28;20410;-80
2022/06/26 03:20:01;;;;;;;3.72;2.47;;;19.50;99.90;;;19.84;99.29;100703.00;5215200;28;20450;-81
2022/06/26 03:22:33;;;;;;;5.25;2.47;;;19.40;99.90;;;19.82;99.51;100699.44;5214419;28;20426;-79
2022/06/26 03:25:06;;;;;;;3.83;2.10;;;19.40;99.90;;;19.82;99.34;100707.38;5214393;28;20068;-81
2022/06/26 03:27:40;;;;;;;4.20;2.22;;;19.40;99.90;;;19.79;99.24;100711.81;5214575;28;20037;-80
2022/06/26 03:30:14;;;;;;;2.75;2.05;;;19.40;99.90;;;19.77;99.23;100712.72;5214937;28;20045;-81
2022/06/26 03:32:51;;;;;;;4.20;2.45;;;19.30;99.90;;;19.74;99.10;100718.00;5214675;28;20056;-80
2022/06/26 03:35:23;;;;;;;5.60;2.70;;;19.30;99.90;;;19.72;99.15;100707.44;5214613;28;20052;-81
2022/06/26 03:37:55;;;;;;;4.10;2.60;;;19.30;99.90;;;19.71;99.45;100710.97;5232754;28;20052;-81
2022/06/26 03:40:28;;;;;;;3.90;2.67;;;19.30;99.90;;;19.68;99.28;100707.44;5288618;22;20042;-72
2022/06/26 03:43:02;;;;;;;4.75;2.80;;;19.20;99.90;;;19.65;99.23;100715.41;5227880;28;20098;-72
2022/06/26 03:45:47;;;;;;;3.95;2.58;;;19.20;99.90;;;19.62;99.38;100726.84;5244671;28;20045;-73
2022/06/26 03:48:20;;;;;;;4.57;2.83;;;19.20;99.90;;;19.63;99.62;100736.56;5219118;28;20047;-72
2022/06/26 03:50:52;;;;;;;4.88;2.92;;;19.20;99.90;;;19.64;99.84;100740.97;5228267;28;20045;-72
2022/06/26 03:53:26;;;;;;;5.43;2.80;;;19.20;99.90;;;19.64;100.00;100733.03;5227877;28;20055;-71
2022/06/26 03:55:59;;;;;;;5.35;3.00;;;19.20;99.90;;;19.66;100.00;100735.66;5228045;28;20409;-72
2022/06/26 03:58:32;;;;;;;4.43;2.85;;;19.20;99.90;;;19.66;100.00;100736.53;5227936;28;20524;-72
2022/06/26 04:01:05;;;;;;;5.55;3.22;;;19.20;99.90;;;19.65;100.00;100737.44;5228017;28;20420;-71
2022/06/26 04:03:38;;;;;;;4.70;2.88;;;19.20;99.90;;;19.64;100.00;100738.31;5228059;28;20041;-72
2022/06/26 04:06:12;;;;;;;4.80;3.00;;;19.20;99.90;;;19.64;100.00;100743.63;5227492;28;20493;-73
2022/06/26 04:08:44;;;;;;;4.47;2.80;;;19.20;99.90;;;19.64;100.00;100748.03;5224277;28;20049;-72
2022/06/26 04:11:20;;;;;;;4.05;2.92;;;19.20;99.90;;;19.63;100.00;100746.28;5207280;28;20049;-72
2022/06/26 04:14:01;;;;;;;4.30;2.85;;;19.20;99.90;;;19.65;100.00;100747.13;5207043;28;20171;-72
2022/06/26 04:16:34;;;;;;;4.03;2.60;;;19.20;99.90;;;19.66;100.00;100752.41;5206845;28;20049;-72
2022/06/26 04:19:06;;;;;;;5.63;3.47;;;19.30;99.90;;;19.70;100.00;100748.88;5206961;28;20457;-72
2022/06/26 04:21:38;;;;;;;4.10;2.78;;;19.30;99.90;;;19.73;100.00;100756.78;5207157;28;20045;-72
2022/06/26 04:24:14;;;;;;;4.57;3.10;;;19.30;99.90;;;19.75;100.00;100757.66;5207019;28;20046;-72
2022/06/26 04:26:46;;;;;;;5.15;3.30;;;19.30;99.90;;;19.77;100.00;100753.25;5206621;28;20046;-73
2022/06/26 04:29:20;;;;;;;6.72;4.13;;;19.40;99.90;;;19.82;100.00;100757.63;5206949;28;20136;-72
2022/06/26 04:31:52;;;;;;;5.57;3.33;;;19.40;99.90;;;19.83;100.00;100756.78;5206973;28;20053;-72
2022/06/26 04:34:25;;;;;;;6.57;3.35;;;19.40;99.90;;;19.84;100.00;100766.47;5223458;28;20053;-73
2022/06/26 04:36:58;;;;;;;4.53;3.08;;;19.40;99.90;;;19.86;100.00;100767.34;5206397;28;20132;-72
2022/06/26 04:39:32;;;;;;;4.55;2.75;;;19.40;99.90;;;19.87;100.00;100766.44;5206546;28;20111;-73
2022/06/26 04:42:09;;;;;;;4.45;2.60;;;19.40;99.90;;;19.88;100.00;100782.31;5206622;28;20544;-72
2022/06/26 04:44:46;;;;;;;3.17;2.30;;;19.40;99.90;;;19.93;100.00;100785.81;5206477;28;20103;-73
2022/06/26 04:47:18;;;;;;;3.58;2.50;;;19.50;99.90;;;20.00;100.00;100781.38;5214587;28;20045;-72
2022/06/26 04:50:11;;;;;;;4.50;2.80;;;19.50;99.90;;;20.13;100.00;100780.44;5216261;28;20450;-72
2022/06/26 04:52:49;;;;;;;3.47;2.67;;;19.60;99.90;;;20.37;100.00;100782.09;5227245;28;20077;-72
2022/06/26 04:55:22;;;;;;;3.92;2.08;;;19.80;99.90;;;20.66;98.61;100787.22;5226779;28;20045;-72
2022/06/26 04:57:56;;;;;;;3.25;2.00;;;20.10;99.90;;;20.92;95.61;100778.22;5226997;28;20052;-72
2022/06/26 05:00:30;;;;;;;4.97;1.85;;;20.30;99.90;;;21.19;92.88;100783.31;5226945;28;20137;-72
2022/06/26 05:03:22;;;;;;;2.85;1.52;;;20.60;99.90;;;21.40;89.62;100791.09;5227761;28;20053;-72
2022/06/26 05:06:03;;;;;;;3.00;1.48;;;20.80;99.90;;;21.44;88.00;100777.78;5226588;28;20051;-72
2022/06/26 05:08:52;;;;;;;3.58;1.88;;;20.90;99.90;;;21.45;87.75;100784.84;5226800;28;20437;-72
2022/06/26 05:11:25;;;;;;;2.60;1.83;;;20.90;99.90;;;21.42;87.95;100788.41;5226630;28;20049;-72
2022/06/26 05:14:00;;;;;;;3.13;1.80;;;20.90;99.90;;;21.34;87.86;100796.47;5226750;28;20073;-72
2022/06/26 05:16:42;;;;;;;3.90;1.60;;;20.90;99.90;;;21.26;87.74;100792.09;5226357;28;20049;-72
2022/06/26 05:19:19;;;;;;;2.03;1.52;;;20.80;99.90;;;21.09;87.19;100798.41;5226927;28;20045;-72
2022/06/26 05:21:52;;;;;;;1.88;1.50;;;20.70;99.90;;;21.01;87.82;100794.94;5227702;28;20048;-72
2022/06/26 05:24:25;;;;;;;3.05;1.83;;;20.60;99.90;;;20.95;87.75;100795.00;5226559;28;20049;-72
2022/06/26 05:26:59;;;;;;;3.58;1.80;;;20.50;99.90;;;20.85;87.41;100783.56;5225488;28;20409;-72
2022/06/26 05:29:31;;;;;;;2.00;1.65;;;20.50;99.90;;;20.86;87.47;100779.16;5226331;28;20045;-72
2022/06/26 05:32:06;;;;;;;1.10;0.98;;;20.40;99.90;;;20.89;87.71;100783.56;5226330;28;20148;-72
2022/06/26 05:34:38;;;;;;;1.33;1.23;;;20.40;99.90;;;20.92;87.82;100788.81;5226294;28;20045;-72
2022/06/26 05:37:11;;;;;;;1.40;1.30;;;20.50;99.90;;;20.91;87.48;100792.38;5226136;28;20072;-72
2022/06/26 05:39:43;;;;;;;3.17;1.30;;;20.40;99.90;;;20.90;87.17;100802.09;5225980;28;20049;-72
2022/06/26 05:42:16;;;;;;;2.08;1.40;;;20.40;99.90;;;20.82;86.57;100810.09;5226226;28;20099;-72
2022/06/26 05:44:48;;;;;;;2.28;1.23;;;20.40;99.90;;;20.74;86.71;100816.34;5225994;28;20497;-73
2022/06/26 05:47:24;;;;;;;1.95;1.30;;;20.30;99.90;;;20.68;87.18;100817.25;5226143;28;20072;-73
2022/06/26 05:50:15;;;;;;;2.95;1.42;;;20.30;99.90;;;20.61;86.79;100851.75;5224244;28;20139;-72
2022/06/26 05:52:58;;;;;;;3.85;1.80;;;20.20;99.90;;;20.50;86.95;100844.72;5184872;28;20049;-72
2022/06/26 05:55:45;;;;;;;2.42;1.35;;;20.10;99.90;;;20.41;87.30;100846.47;5186428;28;20045;-71
2022/06/26 05:58:36;;;;;;;3.92;1.60;;;20.00;99.90;;;20.36;87.71;100848.28;5186167;28;20049;-72
2022/06/26 06:01:29;;;;;;;2.95;1.60;;;20.00;99.90;;;20.32;88.22;100848.28;5175447;28;20061;-71
2022/06/26 06:04:11;;;;;;;2.17;1.75;;;19.90;99.90;;;20.32;87.44;100848.28;5184598;28;20050;-71
2022/06/26 06:06:43;;;;;;;2.97;1.55;;;19.90;99.90;;;20.28;87.68;100851.84;5184155;28;20042;-71
2022/06/26 06:09:16;;;;;;;3.35;1.77;;;19.80;99.90;;;20.25;87.39;100859.78;5184791;28;20514;-71
2022/06/26 06:11:49;;;;;;;2.88;1.65;;;19.90;99.90;;;20.19;87.67;100854.53;5184933;28;20053;-72
2022/06/26 06:14:25;;;;;;;1.75;1.40;;;19.80;99.90;;;20.21;88.13;100854.50;5184624;28;20061;-73
2022/06/26 06:16:57;;;;;;;2.33;1.63;;;19.80;99.90;;;20.24;88.32;100863.31;5184305;28;20057;-58
2022/06/26 06:19:31;;;;;;;2.72;1.50;;;19.80;99.90;;;20.32;87.83;100865.94;5187812;28;20053;-58
2022/06/26 06:22:04;;;;;;;2.67;1.60;;;19.80;99.90;;;20.48;87.44;100869.47;5194361;28;20510;-57
2022/06/26 06:24:38;;;;;;;2.25;1.40;;;20.00;99.90;;;20.63;87.24;100876.44;5194890;28;20045;-58
2022/06/26 06:27:11;;;;;;;2.00;1.40;;;20.10;99.90;;;20.80;87.12;100901.97;5191699;28;20038;-57
2022/06/26 06:29:43;;;;;;;2.67;1.83;;;20.30;99.90;;;20.97;86.61;100898.31;5193657;28;20359;-57
2022/06/26 06:32:16;;;;;;;2.05;1.63;;;20.40;99.90;;;21.08;84.99;100905.31;5190033;28;20049;-56
2022/06/26 06:34:50;;;;;;;2.22;1.20;;;20.60;99.90;;;21.13;82.60;100913.25;5198133;28;20104;-56
2022/06/26 06:37:22;;;;;;;1.92;1.30;;;20.60;99.90;;;21.15;81.12;100914.09;5215003;28;20038;-58
2022/06/26 06:39:54;;;;;;;2.58;1.40;;;20.60;99.90;;;21.33;80.22;100916.66;5198178;28;20041;-57
2022/06/26 06:42:28;;;;;;;1.70;1.52;;;20.80;99.90;;;21.74;79.40;100926.03;5198165;28;20045;-57
2022/06/26 06:45:13;;;;;;;3.47;1.30;;;21.00;99.90;;;22.23;76.70;100943.28;5187369;28;20099;-56
2022/06/26 06:47:57;;;;;;;1.50;1.13;;;21.50;99.90;;;22.65;73.90;100949.88;5201592;28;20053;-57
2022/06/26 06:50:54;;;;;;;1.98;1.00;;;21.80;99.90;;;23.14;69.30;100949.25;5189923;28;20533;-59
2022/06/26 06:53:26;;;;;;;2.42;1.00;;;22.30;99.90;;;23.26;65.08;100959.72;5197870;28;20037;-58
2022/06/26 06:55:58;;;;;;;1.02;0.90;;;22.50;99.90;;;23.16;63.06;100969.63;5194261;28;20053;-57
2022/06/26 06:58:30;;;;;;;2.58;0.95;;;22.50;99.20;;;23.06;62.17;100962.66;5190628;28;20046;-58
2022/06/26 07:01:03;;;;;;;2.88;1.00;;;22.50;98.30;;;22.90;62.16;100962.00;5190882;28;20132;-57
2022/06/26 07:03:35;;;;;;;1.77;0.80;;;22.30;98.00;;;22.84;62.65;100972.69;5209669;28;20049;-59
2022/06/26 07:06:08;;;;;;;1.23;0.77;;;22.30;98.10;;;22.90;63.16;100956.69;5202180;28;20106;-58
2022/06/26 07:08:41;;;;;;;1.88;0.90;;;22.30;98.40;;;23.06;63.46;100964.44;5216583;28;20075;-58
2022/06/26 07:11:13;;;;;;;0.85;0.80;;;22.40;98.50;;;23.19;63.38;100960.72;5225057;28;20059;-58
2022/06/26 07:13:45;;;;;;;1.27;0.88;;;22.50;98.60;;;23.31;62.58;100957.00;5219460;28;20048;-58
2022/06/26 07:16:17;;;;;;;2.17;0.90;;;22.60;98.30;;;23.38;62.15;100956.88;5220308;28;20064;-58
2022/06/26 07:18:50;;;;;;;1.17;0.80;;;22.70;97.90;;;23.50;61.62;100962.00;5213047;28;20045;-58
2022/06/26 07:21:24;;;;;;;1.20;0.90;;;22.80;97.70;;;23.64;61.47;100960.94;5205577;28;20048;-58
2022/06/26 07:23:57;;;;;;;1.08;0.88;;;22.90;97.50;;;23.74;61.72;100968.75;5205506;28;20041;-58
2022/06/26 07:26:45;;;;;;;2.22;0.90;;;23.00;97.90;;;23.74;61.72;100960.78;5204067;28;20046;-59
2022/06/26 07:29:17;;;;;;;4.15;1.00;;;23.00;97.50;;;23.69;61.65;100949.31;5204459;28;20052;-57
2022/06/26 07:31:50;;;;;;;2.88;1.00;;;23.00;97.30;;;23.66;61.14;100957.34;5204143;28;20103;-58
2022/06/26 07:34:25;;;;;;;3.60;0.98;;;23.00;97.20;;;23.55;61.04;100946.84;5204218;28;20140;-59
2022/06/26 07:36:59;;;;;;;1.42;0.80;;;22.90;96.90;;;23.35;60.68;100948.09;5201885;28;20391;-57
2022/06/26 07:39:31;;;;;;;1.35;1.08;;;22.80;96.60;;;23.07;61.26;100947.59;5230453;28;20572;-58
2022/06/26 07:42:06;;;;;;;1.20;0.77;;;22.60;96.50;;;22.87;61.69;100951.41;5212430;28;20073;-57
2022/06/26 07:44:39;;;;;;;2.05;1.05;;;22.40;96.80;;;22.83;62.13;100952.31;5217940;28;20053;-57
2022/06/26 07:47:15;;;;;;;2.33;1.05;;;22.30;97.10;;;22.87;62.51;100951.41;5208209;28;20049;-57
2022/06/26 07:50:14;;;;;;;1.65;1.02;;;22.30;97.30;;;22.94;62.77;100957.50;5210028;28;20060;-58
2022/06/26 07:52:48;;;;;;;1.38;1.00;;;22.30;97.30;;;22.96;62.61;100953.06;5209137;28;20049;-56
2022/06/26 07:55:20;;;;;;;;;;;22.40;97.30;;;22.94;62.71;100946.88;5209448;28;20049;-57
2022/06/26 07:57:52;;;;;;;2.25;0.80;;;22.40;97.30;;;22.91;62.66;100947.81;5209546;28;19944;-58
2022/06/26 08:00:25;;;;;;;1.08;0.73;;;22.40;97.30;;;22.86;62.78;100946.97;5209188;28;20060;-58
2022/06/26 08:03:04;;;;;;;2.03;0.75;;;22.30;97.20;;;22.88;62.74;100946.94;5209529;28;20489;-58
2022/06/26 08:05:36;;;;;;;1.50;0.80;;;22.30;97.30;;;22.84;62.72;100955.84;5207713;28;20077;-58
2022/06/26 08:08:11;;;;;;;2.28;0.90;;;22.40;97.20;;;22.74;63.00;100971.03;5208765;28;20064;-57
2022/06/26 08:10:43;;;;;;;1.70;0.98;;;22.30;97.30;;;22.72;63.27;100978.16;5209127;28;20042;-58
2022/06/26 08:13:16;;;;;;;2.55;1.10;;;22.20;97.40;;;22.73;63.38;100974.59;5208976;28;20564;-58
2022/06/26 08:15:48;;;;;;;3.17;1.10;;;22.30;97.50;;;22.72;63.63;100979.03;5209161;28;20455;-58
2022/06/26 08:18:20;;;;;;;3.67;1.20;;;22.30;97.60;;;22.74;63.79;100986.97;5208501;28;20123;-58
2022/06/26 08:20:52;;;;;;;3.35;1.42;;;22.30;97.70;;;22.72;64.26;100988.78;5208591;28;20042;-58
2022/06/26 08:23:26;;;;;;;2.03;1.05;;;22.30;97.90;;;22.75;64.76;100988.72;5208749;28;20040;-57
2022/06/26 08:25:58;;;;;;;1.88;1.00;;;22.30;98.20;;;22.72;64.93;100988.78;5208442;28;20049;-58
2022/06/26 08:28:30;;;;;;;1.40;1.10;;;22.30;98.30;;;22.71;65.20;100982.56;5208195;28;20056;-57
2022/06/26 08:31:02;;;;;;;1.77;0.98;;;22.30;98.40;;;22.65;65.37;100987.09;5208443;28;20069;-57
2022/06/26 08:33:34;;;;;;;3.22;1.20;;;22.20;98.50;;;22.60;65.91;100988.91;5208609;28;20045;-58
2022/06/26 08:36:07;;;;;;;2.72;1.05;;;22.20;98.70;;;22.57;66.41;100996.94;5208381;28;20037;-57
2022/06/26 08:38:41;;;;;;;1.73;1.20;;;22.10;99.10;;;22.56;66.79;100997.81;5207945;28;20105;-58
2022/06/26 08:41:14;;;;;;;1.83;1.35;;;22.10;99.30;;;22.58;66.95;100996.03;5208145;28;20066;-58
2022/06/26 08:43:47;;;;;;;1.73;1.23;;;22.10;99.40;;;22.51;66.76;101003.19;5208330;28;20038;-56
2022/06/26 08:46:23;;;;;;;1.35;1.10;;;22.00;99.30;;;22.49;66.93;101007.63;5207973;28;20042;-57
2022/06/26 08:48:58;;;;;;;1.20;1.10;;;22.00;99.50;;;22.54;67.22;101015.53;5207966;28;20124;-57
2022/06/26 08:51:31;;;;;;;3.28;1.30;;;22.00;99.50;;;22.61;66.76;101011.91;5207705;28;20049;-57
2022/06/26 08:54:06;;;;;;;2.25;1.23;;;22.10;99.50;;;22.62;66.17;101008.34;5207959;28;20048;-57
2022/06/26 08:56:41;;;;;;;1.70;1.10;;;22.10;99.20;;;22.63;65.75;101004.84;5207562;28;20057;-58
2022/06/26 08:59:16;;;;;;;1.27;1.17;;;22.10;99.00;;;22.69;65.56;101010.03;5208105;28;20046;-57
2022/06/26 09:01:48;;;;;;;1.77;1.33;;;22.20;98.90;;;22.71;65.18;101003.84;5206803;28;20406;-58
2022/06/26 09:04:21;;;;;;;1.42;1.20;;;22.20;98.70;;;22.70;65.11;100995.88;5207782;28;20071;-57
2022/06/26 09:06:53;;;;;;;1.35;1.20;;;22.20;98.60;;;22.71;65.14;101005.63;5207453;28;20073;-57
2022/06/26 09:09:29;;;;;;;1.10;1.00;;;22.20;98.60;;;22.71;65.28;101003.84;5207423;28;20065;-57
2022/06/26 09:12:02;;;;;;;2.17;1.00;;;22.20;98.70;;;22.75;65.94;101017.94;5207366;28;20052;-56
2022/06/26 09:14:35;;;;;;;0.93;0.90;;;22.20;98.90;;;22.82;65.86;101016.09;5207728;28;20133;-59
2022/06/26 09:17:07;;;;;;;0.82;0.82;;;22.30;99.00;;;22.90;65.69;101020.47;5207586;28;20047;-58
2022/06/26 09:19:43;;;;;;;2.30;0.90;;;22.40;99.00;;;23.09;65.77;101020.25;5207551;28;20064;-58
2022/06/26 09:22:17;;;;;;;1.67;1.33;;;22.50;99.40;;;23.74;64.59;101016.66;5218209;28;20107;-59
2022/06/26 09:24:57;;;;;;;2.60;1.40;;;22.80;99.30;;;24.20;62.61;101020.34;5215593;28;20033;-57
2022/06/26 09:27:29;;;;;;;1.73;1.17;;;23.10;98.50;;;24.38;61.24;101022.69;5207446;28;20474;-57
2022/06/26 09:30:03;;;;;;;2.45;1.20;;;23.30;97.90;;;24.69;60.51;101014.97;5207219;28;20049;-55
2022/06/26 09:32:35;;;;;;;1.45;1.00;;;23.60;97.70;;;25.15;58.60;101014.91;5208182;28;20494;-57
2022/06/26 09:35:08;;;;;;;1.05;0.90;;;23.90;96.80;;;25.42;57.55;101023.22;5207101;28;20056;-58
2022/06/26 09:37:40;;;;;;;1.20;1.08;;;24.10;96.10;;;25.46;56.76;101024.91;5207875;28;20043;-58
2022/06/26 09:40:16;;;;;;;1.30;0.93;;;24.30;95.60;;;25.24;56.51;101029.00;5215288;28;20501;-58
2022/06/26 09:42:48;;;;;;;0.90;0.85;;;24.20;94.90;;;24.98;57.14;101018.84;5228017;28;20108;-57
2022/06/26 09:45:21;;;;;;;0.95;0.90;;;24.10;94.80;;;24.80;57.55;101017.44;5227235;28;20055;-58
2022/06/26 09:47:53;;;;;;;1.10;1.00;;;24.00;94.80;;;24.66;57.41;101022.19;5227396;28;20048;-57
2022/06/26 09:50:26;;;;;;;2.65;1.13;;;23.90;94.70;;;24.48;57.85;101040.25;5227277;28;20497;-58
2022/06/26 09:52:59;;;;;;;1.27;0.98;;;23.80;94.70;;;24.27;58.47;101038.84;5227737;28;20454;-57
2022/06/26 09:55:32;;;;;;;1.88;0.70;;;23.60;94.90;;;24.13;58.97;101040.88;5214521;28;20072;-57
2022/06/26 09:58:05;;;;;;;1.00;0.90;;;23.50;95.10;;;24.07;58.98;101025.88;5206343;28;20037;-59
2022/06/26 10:00:38;;;;;;;1.00;0.82;;;23.40;95.10;;;24.05;58.79;101027.66;5217274;28;20041;-57
2022/06/26 10:08:49;;;;;;;1.35;0.80;;;23.40;95.30;;;24.09;59.45;101032.03;5209941;28;20461;-58
2022/06/26 10:11:27;;;;;;;1.27;0.80;;;23.40;95.40;;;24.07;59.33;101030.31;5223409;28;20053;-57
2022/06/26 10:14:03;;;;;;;1.25;1.00;;;23.40;95.30;;;24.05;59.92;101035.66;5210141;28;20049;-59
2022/06/26 10:17:26;;;;;;;2.13;1.20;;;23.40;95.40;;;24.00;60.01;101034.00;5206283;28;20041;-56
2022/06/26 10:20:01;;;;;;;2.50;1.10;;;23.40;95.50;;;23.98;60.07;101033.13;5174276;28;20053;-56
2022/06/26 10:22:42;;;;;;;2.22;1.30;;;23.30;95.60;;;23.90;60.45;101027.06;5208356;28;20041;-57
2022/06/26 10:25:23;;;;;;;2.33;1.20;;;23.30;95.70;;;23.85;60.81;101024.47;5205592;28;20045;-57
2022/06/26 10:27:58;;;;;;;1.35;1.00;;;23.20;95.80;;;23.90;60.95;101030.59;5207676;28;20048;-58
2022/06/26 10:30:32;;;;;;;2.55;1.10;;;23.30;96.10;;;23.94;60.56;101034.09;5220791;28;20124;-57
2022/06/26 10:33:08;;;;;;;;;;;23.30;95.80;;;24.02;59.03;101027.72;5221143;28;20045;-56
2022/06/26 10:35:43;;;;;;;2.33;0.80;;;23.30;95.00;;;24.30;58.60;101032.56;5226760;28;20557;-57
2022/06/26 10:38:21;;;;;;;0.88;0.82;;;23.50;95.00;;;24.56;57.92;101038.31;5228067;28;20045;-56
2022/06/26 10:44:05;;;;;;;1.75;1.02;;;23.80;93.30;;;24.62;53.97;101029.34;5225340;28;20060;-58
2022/06/26 10:46:40;;;;;;;1.73;1.20;;;23.90;91.80;;;24.49;54.26;101028.69;5216401;28;20517;-56
2022/06/26 10:49:12;;;;;;;2.92;1.10;;;23.90;91.90;;;24.42;55.10;101035.03;5222050;28;20049;-56
2022/06/26 10:51:46;;;;;;;1.15;0.93;;;23.80;91.90;;;24.44;55.44;101035.88;5228532;28;20094;-58
2022/06/26 10:54:21;;;;;;;1.60;1.13;;;23.80;92.30;;;24.39;55.54;101029.78;5229423;28;20707;-56
2022/06/26 10:57:17;;;;;;;2.22;1.10;;;23.80;92.10;;;24.39;55.55;101028.88;5230240;28;20406;-58
2022/06/26 10:59:51;;;;;;;1.55;1.30;;;23.70;92.20;;;24.44;56.55;101038.53;5209561;28;20037;-56